»·PEaware :: SWA5475 KPHX-KONT

SWA5475 :: KPHX-KONT

FLIGHT INFORMATION

Flight Status: Arrived
Operator:
Southwest Airlines
More flights by this operator :: More flights under this callsign
Pilot: Walter P. (10403)
Aircraft: BOEING 737-300
(B733)
More flights by this aircraft type
Origin: KPHX Phoenix Sky Harbor Intl
United States
Destination: KONT Ontario Intl
United States
More flights between these airports :: More routes between these airports
Route: +IZZZO6 HRRBR PHRED SCBBY2
File this flight plan on PilotEdge
Remarks:
Altitude:
(Current/Filed)
30,000ft
Speed:
(Current/Filed)
400kts
Departed: 11-Apr-18 01:56 PM
Arrived: 11-Apr-18 02:53 PM
Distance/Time
Traveled:
281nm/0:57
Distance/Time
To Go:
Arrived

Flight Plot

Page will automatically refresh every two minutes.

Flight plan parsing failed; only flown route is shown


Map Options




Map Legend


Flown Route
Filed Route
Departure Airport
Arrival Airport
Navaid (VOR, NDB)
Fix

Horizontal Profiles

Position Reports

Time Latitude Longitude Heading Altitude Ground
Speed
11-Apr-18 13:21 33.434293 -111.999861 90 1116ft 0kts
11-Apr-18 13:22 33.434293 -111.999861 90 1116ft 0kts
11-Apr-18 13:23 33.434293 -111.999861 90 1116ft 0kts
11-Apr-18 13:24 33.434293 -111.999861 90 1116ft 0kts
11-Apr-18 13:25 33.434293 -111.999861 90 1116ft 0kts
11-Apr-18 13:26 33.434293 -111.999861 90 1116ft 0kts
11-Apr-18 13:27 33.434293 -111.999861 90 1116ft 0kts
11-Apr-18 13:28 33.434293 -111.999861 90 1116ft 0kts
11-Apr-18 13:29 33.434293 -111.999861 90 1116ft 0kts
11-Apr-18 13:30 33.434293 -111.999861 90 1116ft 0kts
11-Apr-18 13:31 33.434293 -111.999861 90 1116ft 0kts
11-Apr-18 13:32 33.434293 -111.999861 90 1116ft 0kts
11-Apr-18 13:33 33.434293 -111.999861 90 1116ft 0kts
11-Apr-18 13:34 33.434293 -111.999861 90 1116ft 0kts
11-Apr-18 13:35 33.434293 -111.999861 90 1116ft 0kts
11-Apr-18 13:36 33.434293 -111.999861 90 1116ft 0kts
11-Apr-18 13:37 33.434293 -111.999861 90 1116ft 0kts
11-Apr-18 13:38 33.434293 -111.999861 90 1116ft 0kts
11-Apr-18 13:39 33.434293 -111.999861 90 1116ft 0kts
11-Apr-18 13:40 33.434293 -111.999861 90 1116ft 0kts
11-Apr-18 13:41 33.434293 -111.999889 90 1116ft 2kts
11-Apr-18 13:42 33.434336 -112.000378 176 1116ft 0kts
11-Apr-18 13:43 33.434429 -112.000368 179 1116ft 0kts
11-Apr-18 13:44 33.434429 -112.000368 179 1116ft 0kts
11-Apr-18 13:45 33.434429 -112.000368 180 1116ft 0kts
11-Apr-18 13:46 33.434429 -112.000368 180 1116ft 0kts
11-Apr-18 13:47 33.434369 -112.000368 179 1116ft 1kts
11-Apr-18 13:48 33.432778 -112.000455 197 1116ft 9kts
11-Apr-18 13:49 33.432133 -112.004079 269 1116ft 15kts
11-Apr-18 13:50 33.432141 -112.010027 269 1116ft 20kts
11-Apr-18 13:51 33.432153 -112.017722 271 1116ft 24kts
11-Apr-18 13:52 33.432154 -112.025856 270 1116ft 24kts
11-Apr-18 13:53 33.432024 -112.026852 218 1116ft 0kts
11-Apr-18 13:54 33.431060 -112.025727 90 1116ft 20kts
11-Apr-18 13:55 33.431186 -111.988199 87 1439ft 173kts
11-Apr-18 13:56 33.433268 -111.928572 88 3321ft 194kts
11-Apr-18 13:57 33.424241 -111.863895 144 4807ft 232kts
11-Apr-18 13:58 33.365883 -111.858468 219 7062ft 233kts
11-Apr-18 13:59 33.357100 -111.931532 276 9458ft 245kts
11-Apr-18 14:00 33.369523 -112.020337 277 10428ft 316kts
11-Apr-18 14:01 33.384452 -112.125677 278 12657ft 338kts
11-Apr-18 14:02 33.400293 -112.238163 278 15306ft 347kts
11-Apr-18 14:03 33.416331 -112.352844 277 17788ft 355kts
11-Apr-18 14:04 33.432672 -112.470569 277 20081ft 362kts
11-Apr-18 14:05 33.449057 -112.589512 277 22142ft 370kts
11-Apr-18 14:06 33.451781 -112.713026 269 23999ft 377kts
11-Apr-18 14:07 33.459557 -112.838279 280 25787ft 385kts
11-Apr-18 14:08 33.483627 -112.964595 279 27408ft 393kts
11-Apr-18 14:09 33.507441 -113.091973 279 29365ft 386kts
11-Apr-18 14:10 33.530713 -113.217400 279 29940ft 387kts
11-Apr-18 14:11 33.553632 -113.342619 279 29928ft 387kts
11-Apr-18 14:12 33.576456 -113.468107 279 29927ft 387kts
11-Apr-18 14:13 33.599557 -113.593157 279 29927ft 387kts
11-Apr-18 14:14 33.622980 -113.718833 279 29867ft 387kts
11-Apr-18 14:15 33.646322 -113.844705 279 29868ft 390kts
11-Apr-18 14:16 33.648390 -113.973141 267 29864ft 386kts
11-Apr-18 14:17 33.646189 -114.101440 267 29863ft 386kts
11-Apr-18 14:18 33.656480 -114.229762 274 29863ft 388kts
11-Apr-18 14:19 33.669387 -114.358567 274 29868ft 391kts
11-Apr-18 14:20 33.682153 -114.487918 274 29862ft 390kts
11-Apr-18 14:21 33.694758 -114.617095 274 29863ft 390kts
11-Apr-18 14:22 33.707106 -114.745168 274 29864ft 390kts
11-Apr-18 14:23 33.719491 -114.874921 274 29868ft 394kts
11-Apr-18 14:24 33.731817 -115.005514 274 29862ft 393kts
11-Apr-18 14:25 33.743958 -115.135695 274 29863ft 393kts
11-Apr-18 14:26 33.755292 -115.256256 276 29850ft 398kts
11-Apr-18 14:27 33.768388 -115.385822 276 29865ft 398kts
11-Apr-18 14:28 33.781849 -115.516970 276 29835ft 397kts
11-Apr-18 14:29 33.795217 -115.647686 276 27065ft 392kts
11-Apr-18 14:30 33.807938 -115.774311 276 25978ft 396kts
11-Apr-18 14:31 33.820473 -115.899918 275 24605ft 391kts
11-Apr-18 14:32 33.832773 -116.025495 275 22554ft 369kts
11-Apr-18 14:33 33.844404 -116.143969 275 20871ft 349kts
11-Apr-18 14:34 33.855949 -116.257990 275 20013ft 360kts
11-Apr-18 14:35 33.868634 -116.376594 275 19329ft 357kts
11-Apr-18 14:36 33.886133 -116.493371 285 17758ft 375kts
11-Apr-18 14:37 33.915081 -116.606857 285 15683ft 345kts
11-Apr-18 14:38 33.941764 -116.712579 284 13501ft 324kts
11-Apr-18 14:39 33.946208 -116.813329 266 11645ft 308kts
11-Apr-18 14:40 33.954393 -116.905181 281 10585ft 279kts
11-Apr-18 14:41 33.972524 -116.989683 281 9268ft 260kts
11-Apr-18 14:42 34.003420 -117.063366 321 7655ft 269kts
11-Apr-18 14:43 34.036584 -117.134901 276 6022ft 249kts
11-Apr-18 14:44 34.046317 -117.209961 276 5190ft 220kts
11-Apr-18 14:45 34.053906 -117.279812 272 4011ft 216kts
11-Apr-18 14:46 34.054859 -117.346110 268 4016ft 209kts
11-Apr-18 14:47 34.054738 -117.395924 268 4044ft 179kts
11-Apr-18 14:48 34.054795 -117.454244 268 3051ft 176kts
11-Apr-18 14:49 34.054966 -117.510495 267 2166ft 173kts
11-Apr-18 14:50 34.055167 -117.560969 264 1300ft 135kts
11-Apr-18 14:51 34.054918 -117.599922 267 946ft 68kts
11-Apr-18 14:52 34.055925 -117.610048 4 946ft 0kts
11-Apr-18 14:53 34.056294 -117.610021 1 946ft 4kts
11-Apr-18 14:54 34.058011 -117.607539 89 946ft 19kts
11-Apr-18 14:55 34.058009 -117.600230 89 946ft 14kts
11-Apr-18 14:56 34.059175 -117.596077 22 946ft 13kts
11-Apr-18 14:57 34.060144 -117.596431 307 946ft 0kts
11-Apr-18 14:58 34.060144 -117.596431 307 946ft 0kts
11-Apr-18 14:59 34.060144 -117.596431 307 946ft 0kts

Navigation Log

Ident Type
Flight plan parsing failed, navigation log unavailable